createdAt,value
2023-04-22T00:01:10.329Z,58.80
2023-04-22T06:14:50.626Z,58.15
2023-04-22T06:18:54.967Z,59.10
2023-04-22T06:22:58.087Z,59.25
2023-04-22T06:27:01.081Z,58.85
2023-04-22T06:35:10.209Z,59.90
2023-04-22T06:39:13.232Z,58.10
2023-04-22T06:43:16.220Z,60.75
2023-04-22T06:47:20.403Z,60.13
2023-04-22T06:51:24.765Z,60.00
2023-04-22T06:55:27.734Z,59.90
2023-04-22T06:59:30.745Z,58.95
2023-04-22T07:03:33.986Z,60.70
2023-04-22T07:07:38.618Z,60.10
2023-04-22T07:11:41.679Z,60.20
2023-04-22T07:15:47.241Z,59.65
2023-04-22T07:19:50.284Z,59.97
2023-04-22T07:23:54.871Z,59.80
2023-04-22T07:27:58.087Z,60.70
2023-04-22T07:32:01.111Z,60.20
2023-04-22T07:36:04.282Z,60.60
2023-04-22T07:40:12.111Z,59.60
2023-04-22T07:44:18.362Z,59.30
2023-04-22T07:48:21.387Z,59.87
2023-04-22T07:52:24.475Z,60.50
2023-04-22T07:56:30.964Z,58.90
2023-04-22T08:00:34.485Z,57.80
2023-04-22T08:04:37.559Z,59.50
2023-04-22T08:08:40.614Z,58.80
2023-04-22T08:12:45.222Z,59.37
2023-04-22T08:16:48.165Z,59.20
2023-04-22T08:20:51.749Z,58.73
2023-04-22T08:24:54.740Z,59.30
2023-04-22T08:28:59.098Z,59.00
2023-04-22T08:33:02.162Z,58.97
2023-04-22T08:37:05.292Z,57.70
2023-04-22T08:41:08.604Z,58.50
2023-04-22T08:45:14.926Z,57.70
2023-04-22T08:49:18.252Z,57.20
2023-04-22T08:53:24.343Z,57.50
2023-04-22T08:57:28.399Z,58.40
2023-04-22T09:01:34.173Z,58.15
2023-04-22T09:05:40.795Z,58.17
2023-04-22T09:09:45.987Z,57.40
2023-04-22T09:13:50.805Z,56.67
2023-04-22T09:17:55.426Z,56.58
2023-04-22T09:21:59.555Z,60.00
2023-04-22T09:26:03.234Z,58.13
2023-04-22T09:30:10.105Z,57.30
2023-04-22T09:34:15.391Z,57.53
2023-04-22T09:38:18.467Z,56.95
2023-04-22T09:42:22.910Z,57.35
2023-04-22T09:46:28.671Z,57.40
2023-04-22T09:50:33.464Z,57.40
2023-04-22T09:54:38.742Z,56.20
2023-04-22T09:58:44.113Z,57.20
2023-04-22T10:02:47.173Z,56.50
2023-04-22T10:06:51.844Z,56.70
2023-04-22T10:10:57.285Z,56.90
2023-04-22T10:15:00.449Z,56.50
2023-04-22T10:19:07.634Z,56.97
2023-04-22T10:23:19.178Z,56.80
2023-04-22T10:27:23.262Z,61.10
2023-04-22T10:31:26.825Z,60.70
2023-04-22T10:35:30.359Z,61.10
2023-04-22T10:39:34.853Z,61.20
2023-04-22T10:43:45.450Z,62.00
2023-04-22T10:47:48.620Z,60.60
2023-04-22T10:51:53.074Z,60.60
2023-04-22T10:55:57.514Z,60.85
2023-04-22T11:00:01.280Z,61.60
2023-04-22T11:04:23.421Z,60.80
2023-04-22T11:08:30.010Z,61.80
2023-04-22T11:12:46.627Z,62.00
2023-04-22T11:16:49.686Z,62.55
2023-04-22T11:20:53.824Z,61.30
2023-04-22T11:24:57.180Z,62.15
2023-04-22T11:29:02.583Z,61.80
2023-04-22T11:33:18.881Z,62.27
2023-04-22T11:37:23.477Z,62.30
2023-04-22T11:41:27.035Z,62.40
2023-04-22T11:45:36.402Z,62.30
2023-04-22T11:49:40.352Z,62.05
2023-04-22T11:53:52.523Z,63.00
2023-04-22T11:57:57.830Z,61.97
2023-04-22T12:06:09.422Z,62.60
2023-04-22T12:10:13.136Z,62.00
2023-04-22T12:14:16.762Z,7.50
2023-04-22T12:18:39.280Z,5.15
2023-04-22T12:22:42.531Z,5.30
2023-04-22T12:26:46.017Z,5.70
2023-04-22T12:30:51.185Z,5.30
2023-04-22T12:34:56.294Z,6.50
2023-04-22T12:38:59.373Z,6.20
2023-04-22T12:43:06.147Z,4.30
2023-04-22T12:47:09.922Z,6.07
2023-04-22T12:51:14.285Z,5.75
2023-04-22T12:55:18.008Z,6.85
2023-04-22T12:59:32.312Z,5.90
2023-04-22T13:03:35.422Z,6.20
2023-04-22T13:07:40.792Z,6.70
2023-04-22T13:11:54.491Z,4.93
2023-04-22T13:15:58.319Z,6.22
2023-04-22T13:20:01.531Z,5.65
2023-04-22T13:24:06.329Z,5.80
2023-04-22T13:28:11.578Z,5.70
2023-04-22T13:32:14.770Z,6.87
2023-04-22T13:36:17.775Z,7.35
2023-04-22T13:40:22.313Z,5.53
2023-04-22T13:44:29.885Z,5.87
2023-04-22T13:48:32.893Z,5.60
2023-04-22T13:52:36.800Z,4.90
2023-04-22T13:56:41.245Z,5.32
2023-04-22T14:00:44.308Z,6.13
2023-04-22T14:04:47.388Z,6.30
2023-04-22T14:08:50.435Z,4.90
2023-04-22T14:12:54.825Z,5.00
2023-04-22T14:16:58.111Z,4.90
2023-04-22T14:21:02.061Z,6.13
2023-04-22T14:25:05.491Z,4.97
2023-04-22T14:29:10.281Z,4.40
2023-04-22T14:33:13.545Z,5.60
2023-04-22T14:37:47.840Z,4.50
2023-04-22T14:41:50.957Z,4.15
2023-04-22T14:45:55.686Z,4.40
2023-04-22T14:49:58.904Z,5.05
2023-04-22T14:54:02.013Z,4.30
2023-04-22T14:58:06.979Z,7.73
2023-04-22T15:02:15.815Z,8.05
2023-04-22T15:06:27.637Z,7.30
2023-04-22T15:10:30.666Z,7.78
2023-04-22T15:14:47.549Z,7.65
2023-04-22T15:18:55.623Z,7.00
2023-04-22T15:22:58.748Z,7.20
2023-04-22T15:27:02.965Z,8.00
2023-04-22T15:31:06.248Z,7.60
2023-04-22T15:35:11.128Z,6.90
2023-04-22T15:39:14.129Z,8.00
2023-04-22T15:43:17.241Z,7.40
2023-04-22T15:47:21.399Z,6.90
2023-04-22T15:51:25.827Z,8.80
2023-04-22T15:55:28.838Z,6.40
2023-04-22T15:59:43.067Z,8.25
2023-04-22T16:03:46.357Z,8.10
2023-04-22T16:07:50.955Z,6.60
2023-04-22T16:11:55.978Z,40.90
2023-04-22T16:16:04.086Z,62.50
2023-04-22T16:20:08.855Z,62.95
2023-04-22T16:24:14.626Z,63.40
2023-04-22T16:28:17.762Z,63.05
2023-04-22T16:32:20.837Z,64.20
2023-04-22T16:36:26.512Z,62.00
2023-04-22T16:40:31.103Z,62.75
2023-04-22T16:44:34.337Z,61.78
2023-04-22T16:48:40.711Z,62.60
2023-04-22T16:52:59.173Z,61.70
2023-04-22T16:57:33.561Z,61.85
2023-04-22T17:01:38.346Z,61.55
2023-04-22T17:05:41.471Z,60.10
2023-04-22T17:09:50.272Z,60.85
2023-04-22T17:13:54.599Z,60.90
2023-04-22T17:17:57.752Z,60.80
2023-04-22T17:22:01.853Z,60.15
2023-04-22T17:26:05.121Z,61.00
2023-04-22T17:30:10.625Z,62.90
2023-04-22T17:34:13.633Z,59.58
2023-04-22T17:38:16.675Z,58.35
2023-04-22T17:42:20.476Z,58.40
2023-04-22T17:46:24.857Z,59.10
2023-04-22T17:50:27.928Z,58.20
2023-04-22T17:54:31.060Z,58.30
2023-04-22T17:58:38.216Z,58.22
2023-04-22T18:02:43.161Z,58.10
2023-04-22T18:06:46.422Z,58.60
2023-04-22T18:10:50.614Z,57.55
2023-04-22T18:14:53.656Z,57.20
2023-04-22T18:18:59.122Z,56.97
2023-04-22T18:23:02.168Z,58.30
2023-04-22T18:27:05.282Z,58.95
2023-04-22T18:31:08.982Z,57.40
2023-04-22T18:35:13.340Z,58.08
2023-04-22T18:39:17.866Z,57.78
2023-04-22T18:43:20.925Z,57.63
2023-04-22T18:47:24.060Z,56.60
2023-04-22T18:51:29.870Z,57.30
2023-04-22T18:55:32.886Z,55.75
2023-04-22T18:59:35.990Z,57.63
2023-04-22T19:03:39.854Z,57.55
2023-04-22T19:07:45.277Z,57.50
2023-04-22T19:11:48.462Z,57.20
2023-04-22T19:15:51.566Z,56.50
2023-04-22T19:19:54.632Z,57.90
2023-04-22T19:23:59.026Z,58.10
2023-04-22T19:28:02.070Z,57.50
2023-04-22T19:32:05.267Z,56.90
2023-04-22T19:36:08.494Z,56.40
2023-04-22T19:40:17.299Z,56.60
2023-04-22T19:44:21.606Z,57.20
2023-04-22T19:48:25.132Z,55.60
2023-04-22T19:52:29.664Z,55.90
2023-04-22T19:56:34.684Z,58.70
2023-04-22T20:00:38.948Z,60.47
2023-04-22T20:04:42.619Z,59.65
2023-04-22T20:08:46.184Z,60.15
2023-04-22T20:12:51.380Z,60.00
2023-04-22T20:16:55.417Z,60.95
2023-04-22T20:20:59.957Z,60.70
2023-04-22T20:25:07.749Z,60.50
2023-04-22T20:29:14.447Z,59.95
2023-04-22T20:33:18.427Z,60.60
2023-04-22T20:37:23.220Z,60.95
2023-04-22T20:41:27.550Z,61.35
2023-04-22T20:45:32.163Z,61.00
2023-04-22T20:49:36.650Z,60.40
2023-04-22T20:53:39.672Z,60.95
2023-04-22T20:57:42.931Z,60.20
2023-04-22T21:01:48.357Z,60.85
2023-04-22T21:05:52.390Z,60.85
2023-04-22T21:09:55.741Z,60.55
2023-04-22T21:13:59.969Z,60.75
2023-04-22T21:18:07.584Z,60.60
2023-04-22T21:22:11.485Z,59.40
2023-04-22T21:26:16.283Z,58.20
2023-04-22T21:30:21.916Z,58.70
2023-04-22T21:34:26.319Z,58.25
2023-04-22T21:38:30.180Z,57.40
2023-04-22T21:42:33.195Z,56.50
2023-04-22T21:46:40.253Z,56.53
2023-04-22T21:50:44.631Z,55.80
2023-04-22T21:54:47.701Z,55.83
2023-04-22T21:58:50.698Z,54.77
2023-04-22T22:02:53.958Z,55.33
2023-04-22T22:06:58.476Z,55.80
2023-04-22T22:11:04.679Z,55.70
2023-04-22T22:15:09.257Z,56.00
2023-04-22T22:19:12.528Z,56.33
2023-04-22T22:23:17.126Z,56.38
2023-04-22T22:27:20.202Z,55.93
2023-04-22T22:31:23.204Z,57.35
2023-04-22T22:35:26.744Z,56.50
2023-04-22T22:39:31.141Z,55.57
2023-04-22T22:43:34.171Z,56.45
2023-04-22T22:47:37.241Z,56.30
2023-04-22T22:51:40.281Z,56.30
2023-04-22T22:55:44.649Z,55.85
2023-04-22T22:59:47.696Z,55.30
2023-04-22T23:03:51.025Z,56.08
2023-04-22T23:07:54.134Z,56.20
2023-04-22T23:11:58.550Z,56.37
2023-04-22T23:16:01.770Z,55.85
2023-04-22T23:20:06.783Z,55.37
2023-04-22T23:24:10.851Z,55.60
2023-04-22T23:28:16.112Z,55.10
2023-04-22T23:32:21.335Z,55.43
2023-04-22T23:36:25.769Z,55.40
2023-04-22T23:40:28.786Z,54.40
2023-04-22T23:44:33.141Z,54.10
2023-04-22T23:48:36.178Z,55.40
2023-04-22T23:52:41.283Z,55.83
2023-04-22T23:56:45.028Z,55.85
